Time;durP1;ratioP1;P1;durP2;ratioP2;P2;SDS_P1;SDS_P2;PMS_P1;PMS_P2;Temp;Humidity;BMP_temperature;BMP_pressure;BME280_temperature;BME280_humidity;BME280_pressure;Samples;Min_cycle;Max_cycle;Signal;HPM_P1;HPM_P2
2022/07/23 00:01:59;;;;;;;1.00;1.00;;;;;;;16.53;72.06;101779.28;4974602;28;20082;-87
2022/07/23 00:04:25;;;;;;;0.77;0.77;;;;;;;16.51;71.90;101781.06;4975008;28;20430;-86
2022/07/23 00:06:50;;;;;;;0.80;0.80;;;;;;;16.49;71.54;101783.75;4974661;28;20542;-87
2022/07/23 00:09:15;;;;;;;1.00;1.00;;;;;;;16.46;71.34;101794.28;4974896;28;20035;-87
2022/07/23 00:11:40;;;;;;;0.90;0.90;;;;;;;16.45;71.44;101787.31;4975199;28;20379;-86
2022/07/23 00:14:06;;;;;;;1.10;1.00;;;;;;;16.46;71.65;101796.06;4974038;28;20023;-87
2022/07/23 00:16:31;;;;;;;0.87;0.87;;;;;;;16.42;71.74;101787.44;4974767;28;20057;-87
2022/07/23 00:18:56;;;;;;;0.93;0.90;;;;;;;16.39;71.77;101794.47;4974581;28;20060;-86
2022/07/23 00:21:22;;;;;;;1.20;1.10;;;;;;;16.37;71.69;101789.28;4974258;28;20118;-87
2022/07/23 00:23:47;;;;;;;1.00;0.90;;;;;;;16.36;71.83;101784.94;4975135;28;20026;-86
2022/07/23 00:26:12;;;;;;;0.90;0.90;;;;;;;16.33;71.70;101782.38;4974585;28;20054;-86
2022/07/23 00:28:38;;;;;;;1.37;1.20;;;;;;;16.31;71.80;101784.22;4974379;28;20054;-86
2022/07/23 00:31:03;;;;;;;1.30;1.20;;;;;;;16.27;71.55;101785.16;4974404;28;20114;-87
2022/07/23 00:33:28;;;;;;;1.27;1.23;;;;;;;16.24;72.13;101783.50;4974507;28;20121;-86
2022/07/23 00:35:54;;;;;;;1.67;1.57;;;;;;;16.19;72.21;101778.38;4973580;28;20023;-87
2022/07/23 00:38:19;;;;;;;0.83;0.83;;;;;;;16.14;72.21;101780.22;4974704;28;20058;-86
2022/07/23 00:40:44;;;;;;;1.10;1.10;;;;;;;16.13;72.57;101780.28;4973439;28;20502;-87
2022/07/23 00:43:10;;;;;;;1.40;1.30;;;;;;;16.09;72.47;101786.47;4973367;28;20023;-86
2022/07/23 00:45:35;;;;;;;1.43;1.33;;;;;;;16.06;72.48;101784.78;4974565;28;20037;-87
2022/07/23 00:48:04;;;;;;;1.13;1.13;;;;;;;15.99;73.38;101781.44;4974072;28;20111;-87
2022/07/23 00:50:38;;;;;;;1.13;1.13;;;;;;;15.91;72.51;101767.69;4973886;28;20393;-87
2022/07/23 00:53:04;;;;;;;1.40;1.30;;;;;;;15.88;72.72;101781.69;4973121;28;20058;-86
2022/07/23 00:55:29;;;;;;;1.20;1.10;;;;;;;15.84;72.90;101784.38;4974014;28;20065;-86
2022/07/23 00:57:55;;;;;;;1.00;1.00;;;;;;;15.81;73.05;101785.31;4973315;28;20106;-86
2022/07/23 01:00:21;;;;;;;1.10;1.10;;;;;;;15.75;73.23;101783.69;4974365;28;20027;-87
2022/07/23 01:02:46;;;;;;;1.37;1.37;;;;;;;15.72;73.10;101780.28;4974017;28;20027;-87
2022/07/23 01:05:11;;;;;;;0.90;0.90;;;;;;;15.67;73.22;101771.66;4973305;28;20097;-86
2022/07/23 01:07:37;;;;;;;1.30;1.20;;;;;;;15.63;73.19;101765.63;4973968;28;20070;-87
2022/07/23 01:10:03;;;;;;;0.97;0.97;;;;;;;15.58;73.28;101768.34;4974166;28;20106;-87
2022/07/23 01:12:28;;;;;;;1.15;1.15;;;;;;;15.54;73.38;101774.53;4972872;28;20097;-86
2022/07/23 01:15:05;;;;;;;1.40;1.30;;;;;;;15.52;73.24;101772.84;4973919;28;20031;-86
2022/07/23 01:17:30;;;;;;;1.42;1.40;;;;;;;15.49;73.54;101767.69;4973536;28;20065;-87
2022/07/23 01:19:56;;;;;;;1.50;1.40;;;;;;;15.48;73.41;101768.59;4973884;28;20062;-87
2022/07/23 01:22:23;;;;;;;2.03;1.30;;;;;;;15.43;73.58;101768.66;4974010;28;20055;-87
2022/07/23 01:24:48;;;;;;;1.13;1.13;;;;;;;15.39;73.43;101767.88;4973733;28;20106;-87
2022/07/23 01:27:13;;;;;;;1.77;1.43;;;;;;;15.35;73.86;101773.19;4973987;28;20045;-87
2022/07/23 01:29:39;;;;;;;1.70;1.20;;;;;;;15.30;73.81;101773.28;4973695;28;20033;-88
2022/07/23 01:32:10;;;;;;;1.50;1.40;;;;;;;15.22;73.95;101762.97;4973624;28;20090;-87
2022/07/23 01:34:36;;;;;;;1.77;1.30;;;;;;;15.21;74.04;101763.88;4973893;28;20102;-87
2022/07/23 01:37:03;;;;;;;1.47;1.37;;;;;;;15.19;73.81;101768.31;4973792;28;20026;-87
2022/07/23 01:39:28;;;;;;;1.17;1.17;;;;;;;15.14;74.29;101772.75;4973871;28;20018;-87
2022/07/23 01:41:57;;;;;;;1.10;1.10;;;;;;;15.11;74.26;101770.19;4974104;28;20023;-87
2022/07/23 01:44:28;;;;;;;1.40;1.30;;;;;;;15.05;74.39;101763.31;4973786;28;20046;-87
2022/07/23 01:47:02;;;;;;;1.48;1.40;;;;;;;15.05;74.43;101767.69;4972596;28;20037;-87
2022/07/23 01:49:27;;;;;;;1.50;1.40;;;;;;;15.01;74.51;101771.25;4973873;28;20031;-87
2022/07/23 01:52:02;;;;;;;1.30;1.30;;;;;;;15.01;74.52;101772.13;4983010;23;20086;-87
2022/07/23 01:54:29;;;;;;;1.30;1.30;;;;;;;14.97;74.26;101771.28;4957868;29;20115;-87
2022/07/23 01:56:55;;;;;;;1.20;1.20;;;;;;;14.91;74.47;101766.19;4957964;29;20023;-87
2022/07/23 01:59:21;;;;;;;1.30;1.20;;;;;;;14.86;74.76;101762.78;4958242;29;20085;-87
2022/07/23 02:01:50;;;;;;;1.55;1.45;;;;;;;14.85;74.77;101763.72;4957349;28;20031;-87
2022/07/23 02:04:16;;;;;;;1.50;1.40;;;;;;;14.79;74.80;101764.69;4958050;29;20522;-87
2022/07/23 02:06:41;;;;;;;1.60;1.40;;;;;;;14.76;75.01;101761.25;4957577;29;20023;-86
2022/07/23 02:09:06;;;;;;;1.50;1.40;;;;;;;14.75;74.98;101762.16;4963940;28;20019;-86
2022/07/23 02:11:32;;;;;;;1.40;1.30;;;;;;;14.70;75.02;101758.75;4977157;28;20023;-87
2022/07/23 02:14:03;;;;;;;1.40;1.30;;;;;;;14.68;75.18;101753.56;4976115;28;20026;-88
2022/07/23 02:16:29;;;;;;;1.67;1.55;;;;;;;14.67;74.87;101757.91;4977313;28;20019;-87
2022/07/23 02:19:06;;;;;;;1.43;1.40;;;;;;;14.65;75.15;101751.81;4977175;28;20022;-87
2022/07/23 02:21:31;;;;;;;1.20;1.20;;;;;;;14.61;75.31;101751.91;4975344;28;20489;-88
2022/07/23 02:24:04;;;;;;;1.50;1.40;;;;;;;14.56;75.39;101748.53;4961939;28;20102;-87
2022/07/23 02:26:29;;;;;;;1.20;1.20;;;;;;;14.51;75.40;101749.47;4977005;28;20030;-87
2022/07/23 02:29:07;;;;;;;1.30;1.30;;;;;;;14.51;75.52;101748.63;4976183;28;20037;-87
2022/07/23 02:31:33;;;;;;;1.42;1.33;;;;;;;14.50;75.63;101752.09;4977242;28;20019;-87
2022/07/23 02:33:58;;;;;;;1.40;1.30;;;;;;;14.49;75.86;101753.00;4976874;28;20027;-87
2022/07/23 02:36:24;;;;;;;1.57;1.40;;;;;;;14.48;75.71;101743.44;4976833;28;20019;-87
2022/07/23 02:38:52;;;;;;;1.93;1.67;;;;;;;14.47;75.67;101747.78;4977136;28;20027;-84
2022/07/23 02:41:27;;;;;;;2.10;1.60;;;;;;;14.49;75.54;101747.78;4977016;28;20110;-87
2022/07/23 02:43:52;;;;;;;1.67;1.33;;;;;;;14.46;76.00;101745.19;4975438;28;20085;-87
2022/07/23 02:46:17;;;;;;;1.57;1.47;;;;;;;14.42;75.81;101751.34;4976406;28;20034;-87
2022/07/23 02:48:43;;;;;;;1.30;1.23;;;;;;;14.41;75.70;101760.09;4970918;28;20031;-86
2022/07/23 02:51:08;;;;;;;1.80;1.70;;;;;;;14.39;75.81;101761.88;4956994;29;20035;-87
2022/07/23 02:53:33;;;;;;;1.53;1.43;;;;;;;14.37;75.88;101759.28;4973351;28;20064;-87
2022/07/23 02:55:59;;;;;;;1.70;1.60;;;;;;;14.33;76.14;101762.84;4974055;28;20023;-86
2022/07/23 02:58:27;;;;;;;1.20;1.20;;;;;;;14.33;75.98;101757.63;4976475;28;20053;-86
2022/07/23 03:00:53;;;;;;;1.60;1.50;;;;;;;14.30;76.10;101762.88;4976066;28;20443;-86
2022/07/23 03:03:18;;;;;;;1.75;1.60;;;;;;;14.25;76.07;101762.94;4975034;28;20105;-86
2022/07/23 03:05:44;;;;;;;1.50;1.40;;;;;;;14.23;76.41;101766.47;4976870;28;20121;-87
2022/07/23 03:08:18;;;;;;;1.40;1.30;;;;;;;14.19;76.18;101763.91;4994759;28;20045;-86
2022/07/23 03:10:53;;;;;;;1.50;1.40;;;;;;;14.16;76.15;101761.34;4976277;28;20081;-86
2022/07/23 03:13:18;;;;;;;1.63;1.52;;;;;;;14.16;76.15;101769.16;4976121;28;20037;-86
2022/07/23 03:15:52;;;;;;;1.60;1.50;;;;;;;14.14;76.34;101764.88;4976069;28;20031;-86
2022/07/23 03:18:17;;;;;;;1.60;1.50;;;;;;;14.12;76.38;101766.63;4975365;28;20031;-86
2022/07/23 03:20:44;;;;;;;1.60;1.50;;;;;;;14.11;76.35;101768.41;4976279;28;20109;-86
2022/07/23 03:23:09;;;;;;;1.65;1.55;;;;;;;14.09;76.17;101764.94;4974806;28;20035;-86
2022/07/23 03:25:34;;;;;;;1.33;1.33;;;;;;;14.06;76.54;101770.19;4969200;28;20532;-86
2022/07/23 03:28:06;;;;;;;1.50;1.40;;;;;;;14.02;76.93;101763.28;4956603;29;20544;-87
2022/07/23 03:30:47;;;;;;;1.42;1.33;;;;;;;14.02;76.62;101771.13;4956370;29;20163;-87
2022/07/23 03:33:17;;;;;;;1.38;1.27;;;;;;;14.01;76.56;101774.66;4955881;29;20033;-87
2022/07/23 03:35:47;;;;;;;1.80;1.60;;;;;;;13.99;76.70;101772.03;4956682;29;20042;-86
2022/07/23 03:38:13;;;;;;;1.77;1.67;;;;;;;14.00;76.79;101778.13;4955602;29;20031;-87
2022/07/23 03:40:39;;;;;;;1.80;1.70;;;;;;;13.96;77.10;101779.91;4956620;29;20050;-86
2022/07/23 03:43:04;;;;;;;2.67;1.67;;;;;;;13.92;76.90;101773.03;4956486;29;20066;-86
2022/07/23 03:45:30;;;;;;;1.50;1.40;;;;;;;13.92;77.11;101775.63;4955971;29;20027;-86
2022/07/23 03:47:56;;;;;;;1.80;1.67;;;;;;;13.92;76.89;101779.97;4956450;29;20032;-87
2022/07/23 03:50:27;;;;;;;1.67;1.57;;;;;;;13.88;77.17;101771.34;4956442;28;20106;-87
2022/07/23 03:52:53;;;;;;;1.75;1.65;;;;;;;13.88;77.04;101774.81;4954995;28;20043;-87
2022/07/23 03:55:19;;;;;;;1.80;1.65;;;;;;;13.88;77.11;101773.94;4956165;29;20027;-87
2022/07/23 03:57:44;;;;;;;2.00;1.90;;;;;;;13.86;77.36;101776.59;4956073;29;20094;-86
2022/07/23 04:00:11;;;;;;;1.83;1.73;;;;;;;13.86;77.29;101776.59;4954787;28;20023;-86
2022/07/23 04:02:37;;;;;;;;;;;;;;;13.84;77.22;101785.31;4975127;28;20031;-87
2022/07/23 04:05:03;;;;;;;1.83;1.73;;;;;;;13.81;77.26;101778.38;4975115;28;19921;-87
2022/07/23 04:07:28;;;;;;;1.80;1.70;;;;;;;13.79;77.69;101782.75;4974170;28;20034;-87
2022/07/23 04:09:53;;;;;;;1.57;1.47;;;;;;;13.78;77.53;101781.06;4974707;28;20344;-88
2022/07/23 04:12:19;;;;;;;3.17;1.77;;;;;;;13.78;77.61;101786.28;4975577;28;20027;-87
2022/07/23 04:14:44;;;;;;;1.80;1.70;;;;;;;13.79;77.64;101780.13;4974806;28;20030;-87
2022/07/23 04:17:10;;;;;;;2.27;1.90;;;;;;;13.81;77.50;101785.34;4974935;28;20129;-87
2022/07/23 04:19:39;;;;;;;2.10;1.90;;;;;;;13.80;77.86;101788.84;4975222;28;20033;-87
2022/07/23 04:22:06;;;;;;;2.45;2.10;;;;;;;13.81;77.52;101795.78;4974312;28;20479;-87
2022/07/23 04:24:31;;;;;;;2.28;2.08;;;;;;;13.80;77.63;101792.31;4975087;28;20026;-86
2022/07/23 04:26:56;;;;;;;3.73;2.30;;;;;;;13.81;77.62;101796.66;4958454;28;20046;-87
2022/07/23 04:29:22;;;;;;;2.60;2.10;;;;;;;13.83;77.70;101801.84;4954907;29;20086;-87
2022/07/23 04:31:47;;;;;;;2.17;1.97;;;;;;;13.81;77.71;101790.56;4955716;28;20030;-87
2022/07/23 04:34:12;;;;;;;4.10;2.30;;;;;;;13.83;77.63;101796.66;4955215;29;20023;-87
2022/07/23 04:36:37;;;;;;;2.03;1.90;;;;;;;13.83;77.71;101797.50;4955829;29;20054;-87
2022/07/23 04:39:03;;;;;;;2.23;2.03;;;;;;;13.81;77.67;101801.00;4955552;29;20038;-87
2022/07/23 04:41:28;;;;;;;2.03;1.90;;;;;;;13.85;77.98;101802.69;4973788;28;20031;-87
2022/07/23 04:44:00;;;;;;;2.00;1.90;;;;;;;13.86;78.01;101807.00;4974909;28;20023;-87
2022/07/23 04:46:26;;;;;;;1.92;1.83;;;;;;;13.89;78.23;101814.81;4974672;28;20026;-87
2022/07/23 04:48:51;;;;;;;2.53;2.20;;;;;;;13.93;78.00;101815.63;4973928;28;20081;-87
2022/07/23 04:51:16;;;;;;;2.77;2.40;;;;;;;13.95;77.75;101816.47;4974634;28;20102;-87
2022/07/23 04:53:42;;;;;;;3.33;2.20;;;;;;;13.96;78.08;101820.81;4974399;28;20049;-87
2022/07/23 04:56:07;;;;;;;2.23;2.03;;;;;;;13.97;77.91;101823.38;4973708;28;20033;-87
2022/07/23 04:58:45;;;;;;;2.40;2.20;;;;;;;14.03;77.83;101815.50;4974544;28;20109;-87
2022/07/23 05:01:10;;;;;;;2.95;2.35;;;;;;;14.06;77.67;101811.97;4966193;28;20035;-87
2022/07/23 05:03:35;;;;;;;2.60;2.40;;;;;;;14.10;77.84;101825.81;4953541;29;20027;-86
2022/07/23 05:06:00;;;;;;;2.30;2.10;;;;;;;14.14;78.05;101822.31;4954434;29;20082;-86
2022/07/23 05:08:26;;;;;;;2.60;2.40;;;;;;;14.15;77.64;101822.28;4955066;29;20031;-86
2022/07/23 05:10:51;;;;;;;2.50;2.30;;;;;;;14.21;77.64;101821.31;4954290;29;20078;-86
2022/07/23 05:13:17;;;;;;;2.53;2.30;;;;;;;14.25;77.95;101817.78;4955034;29;20527;-87
2022/07/23 05:15:46;;;;;;;4.22;2.47;;;;;;;14.30;77.90;101825.53;4955173;29;20038;-87
2022/07/23 05:18:11;;;;;;;2.60;2.40;;;;;;;14.32;77.87;101819.41;4954553;29;20023;-87
2022/07/23 05:20:37;;;;;;;3.93;2.53;;;;;;;14.35;79.04;101823.75;4954862;28;20041;-87
2022/07/23 05:23:03;;;;;;;2.90;2.60;;;;;;;14.34;81.06;101829.84;4954628;29;20034;-87
2022/07/23 05:25:34;;;;;;;3.00;2.70;;;;;;;14.31;82.89;101827.28;4955311;28;20057;-86
2022/07/23 05:27:59;;;;;;;3.55;2.63;;;;;;;14.30;81.02;101825.53;4958516;29;20468;-86
2022/07/23 05:30:24;;;;;;;3.27;2.63;;;;;;;14.33;82.84;101823.75;4972312;23;20054;-86
2022/07/23 05:32:50;;;;;;;2.67;2.47;;;;;;;14.36;79.90;101834.16;4977415;28;20031;-86
2022/07/23 05:35:15;;;;;;;2.90;2.60;;;;;;;14.44;79.58;101835.78;4978369;28;20042;-87
2022/07/23 05:37:41;;;;;;;2.40;2.20;;;;;;;14.50;79.66;101828.69;4977262;28;20077;-88
2022/07/23 05:40:08;;;;;;;2.47;2.27;;;;;;;14.58;79.47;101839.03;4977595;28;20542;-87
2022/07/23 05:42:38;;;;;;;2.42;2.22;;;;;;;14.65;79.28;101838.03;4977746;28;20027;-87
2022/07/23 05:45:04;;;;;;;2.30;2.10;;;;;;;14.73;79.21;101844.94;4977244;28;20019;-87
2022/07/23 05:47:43;;;;;;;2.17;2.00;;;;;;;14.80;79.07;101841.31;4977865;28;20042;-87
2022/07/23 05:50:09;;;;;;;2.38;2.17;;;;;;;14.86;79.12;101843.81;4977342;28;20235;-91
2022/07/23 05:52:35;;;;;;;2.40;2.20;;;;;;;14.94;79.02;101847.19;4977737;28;20493;-87
2022/07/23 05:55:12;;;;;;;2.10;1.90;;;;;;;15.01;79.06;101847.06;4977496;28;20039;-84
2022/07/23 05:57:41;;;;;;;2.30;2.10;;;;;;;15.08;81.64;101860.00;4978099;28;20033;-91
2022/07/23 06:00:08;;;;;;;3.50;2.80;;;;;;;15.10;82.10;101853.00;4978032;28;20106;-92
2022/07/23 06:02:33;;;;;;;3.33;2.70;;;;;;;15.11;80.41;101854.72;4978313;28;20033;-87
2022/07/23 06:05:01;;;;;;;3.20;2.50;;;;;;;15.20;81.38;101858.06;4977386;28;20109;-86
2022/07/23 06:07:32;;;;;;;4.18;2.80;;;;;;;15.26;80.72;101868.38;4977239;28;20042;-87
2022/07/23 06:10:00;;;;;;;2.38;2.17;;;;;;;15.32;80.06;101865.66;4977298;28;20105;-86
2022/07/23 06:12:25;;;;;;;2.40;2.20;;;;;;;15.39;80.51;101862.03;4977245;28;20027;-86
2022/07/23 06:14:52;;;;;;;3.00;2.40;;;;;;;15.46;79.06;101868.00;4976397;28;20038;-86
2022/07/23 06:17:17;;;;;;;2.85;2.08;;;;;;;15.52;80.24;101872.25;4977585;28;20391;-87
2022/07/23 06:19:43;;;;;;;2.37;2.17;;;;;;;15.58;80.21;101870.38;4976582;28;20027;-86
2022/07/23 06:22:08;;;;;;;1.93;1.83;;;;;;;15.67;79.78;101868.47;4976787;28;20038;-86
2022/07/23 06:24:33;;;;;;;2.30;2.10;;;;;;;15.73;79.38;101868.38;4977509;28;20114;-87
2022/07/23 06:26:59;;;;;;;1.87;1.77;;;;;;;15.83;79.49;101872.50;4976287;28;20038;-86
2022/07/23 06:29:24;;;;;;;1.80;1.70;;;;;;;16.04;79.25;101865.13;4977166;28;20114;-87
2022/07/23 06:31:49;;;;;;;2.50;2.30;;;;;;;16.51;78.70;101863.19;4976928;28;20545;-87
2022/07/23 06:34:14;;;;;;;4.37;2.60;;;;;;;17.21;78.39;101863.22;4976795;28;20030;-87
2022/07/23 06:36:40;;;;;;;3.03;2.40;;;;;;;18.05;75.12;101867.84;4976792;28;20053;-87
2022/07/23 06:39:05;;;;;;;3.53;2.50;;;;;;;18.79;72.47;101867.25;4975893;28;20026;-87
2022/07/23 06:41:30;;;;;;;3.23;2.77;;;;;;;19.45;73.13;101873.78;4976447;28;20030;-87
2022/07/23 06:43:56;;;;;;;2.77;2.50;;;;;;;20.13;70.96;101873.91;4976285;28;20027;-86
2022/07/23 06:46:21;;;;;;;2.30;2.10;;;;;;;20.88;65.30;101870.91;4978144;28;20050;-91
2022/07/23 06:48:46;;;;;;;2.20;2.00;;;;;;;21.44;67.12;101875.50;4977745;28;20101;-90
2022/07/23 06:51:30;;;;;;;2.43;2.23;;;;;;;21.88;63.09;101878.84;4977373;28;20023;-90
2022/07/23 06:53:56;;;;;;;2.10;1.90;;;;;;;22.18;62.98;101865.13;4977477;28;20038;-94
2022/07/23 06:56:21;;;;;;;1.87;1.77;;;;;;;22.36;63.78;101869.50;4976667;28;20027;-95
2022/07/23 06:58:47;;;;;;;1.90;1.80;;;;;;;22.57;59.02;101879.97;4977714;28;20069;-91
2022/07/23 07:01:12;;;;;;;2.00;1.83;;;;;;;22.50;62.87;101881.22;4977563;28;20019;-92
2022/07/23 07:03:37;;;;;;;2.10;1.80;;;;;;;22.57;60.74;101874.69;4978239;28;20464;-90
2022/07/23 07:06:21;;;;;;;1.83;1.73;;;;;;;22.50;57.34;101878.59;4977270;28;20019;-92
2022/07/23 07:08:46;;;;;;;2.22;2.03;;;;;;;22.31;61.49;101878.59;4976989;28;20073;-91
2022/07/23 07:11:12;;;;;;;3.23;2.30;;;;;;;22.06;60.29;101878.00;4976626;28;20023;-95
2022/07/23 07:13:48;;;;;;;2.10;1.90;;;;;;;21.88;62.23;101879.72;4977221;28;20037;-92
2022/07/23 07:16:13;;;;;;;2.55;2.05;;;;;;;21.66;58.07;101881.63;4977018;28;20023;-93
2022/07/23 07:18:39;;;;;;;3.73;1.83;;;;;;;21.51;61.95;101883.13;4977010;28;20364;-95
2022/07/23 07:21:04;;;;;;;1.80;1.70;;;;;;;21.47;60.73;101863.09;4975496;28;20455;-94
2022/07/23 07:23:29;;;;;;;2.03;1.80;;;;;;;21.51;62.31;101862.88;4976315;28;20037;-95
2022/07/23 07:25:55;;;;;;;1.83;1.70;;;;;;;21.51;63.57;101870.81;4975953;28;20093;-95
2022/07/23 07:28:23;;;;;;;1.70;1.60;;;;;;;21.50;63.33;101876.16;4977689;28;20027;-96
2022/07/23 07:30:49;;;;;;;2.15;1.85;;;;;;;21.55;63.12;101880.31;4977040;28;20117;-96
2022/07/23 07:33:14;;;;;;;1.70;1.60;;;;;;;21.53;62.02;101878.63;4976870;28;20106;-95
2022/07/23 07:35:40;;;;;;;2.40;2.20;;;;;;;21.52;60.61;101885.72;4976552;28;20030;-95
2022/07/23 07:38:20;;;;;;;2.20;2.00;;;;;;;21.33;62.63;101880.41;4982102;28;20081;-96
2022/07/23 07:40:46;;;;;;;2.17;1.98;;;;;;;21.33;60.12;101890.13;4978564;28;20030;-96
2022/07/23 07:43:14;;;;;;;3.73;2.60;;;;;;;21.10;56.71;101892.81;4977716;28;20026;-95
2022/07/23 07:45:42;;;;;;;4.70;2.60;;;;;;;20.74;61.95;101887.31;4975837;28;20360;-91
2022/07/23 07:48:07;;;;;;;2.20;2.00;;;;;;;20.74;62.89;101887.31;4975623;28;20113;-94
2022/07/23 07:50:48;;;;;;;1.80;1.70;;;;;;;20.96;62.38;101890.78;4975187;28;20029;-93
2022/07/23 07:53:13;;;;;;;2.47;2.15;;;;;;;21.04;58.40;101876.38;4975150;28;20015;-93
2022/07/23 07:55:38;;;;;;;3.00;2.50;;;;;;;21.00;60.37;101886.22;4975602;28;20607;-92
2022/07/23 07:58:16;;;;;;;2.10;1.90;;;;;;;21.00;61.87;101885.38;4976152;28;20027;-91
2022/07/23 08:00:41;;;;;;;2.13;1.90;;;;;;;21.14;60.47;101878.56;4969880;28;20101;-91
2022/07/23 08:03:25;;;;;;;1.80;1.70;;;;;;;21.10;59.43;101886.69;4975926;28;20131;-91
2022/07/23 08:05:50;;;;;;;2.42;2.00;;;;;;;21.09;57.02;101890.25;4975191;28;20453;-90
2022/07/23 08:08:27;;;;;;;2.30;1.93;;;;;;;21.11;60.15;101893.69;4975920;28;20106;-90
2022/07/23 08:10:53;;;;;;;2.00;1.80;;;;;;;21.17;59.42;101890.78;4975554;28;20026;-91
2022/07/23 08:13:18;;;;;;;1.63;1.52;;;;;;;21.28;60.76;101890.28;4975201;28;20548;-89
2022/07/23 08:15:47;;;;;;;1.53;1.43;;;;;;;21.40;59.94;101888.91;4975700;28;20506;-89
2022/07/23 08:18:12;;;;;;;1.60;1.50;;;;;;;21.52;60.28;101892.75;4975126;28;20046;-88
2022/07/23 08:20:50;;;;;;;2.40;2.20;;;;;;;21.56;53.77;101900.47;4975025;28;20510;-89
2022/07/23 08:23:18;;;;;;;4.30;2.35;;;;;;;21.32;57.55;101910.38;4975100;28;20070;-90
2022/07/23 08:25:44;;;;;;;2.25;1.70;;;;;;;21.39;59.44;101903.03;4975076;28;20061;-90
2022/07/23 08:28:26;;;;;;;1.77;1.67;;;;;;;21.57;58.23;101902.19;4974746;28;20030;-91
2022/07/23 08:30:51;;;;;;;1.80;1.70;;;;;;;21.66;57.99;101911.53;4972101;28;20571;-89
2022/07/23 08:33:32;;;;;;;1.80;1.70;;;;;;;21.66;58.46;101911.53;4974902;28;20102;-89
2022/07/23 08:35:58;;;;;;;1.40;1.30;;;;;;;21.75;58.79;101915.56;4975447;28;20023;-90
2022/07/23 08:38:25;;;;;;;1.83;1.30;;;;;;;21.89;57.12;101921.06;4975633;28;20073;-92
2022/07/23 08:41:02;;;;;;;;;;;;;;;21.64;54.12;101920.47;4974943;28;20043;-90
2022/07/23 08:43:30;;;;;;;3.08;2.38;;;;;;;21.45;57.45;101916.81;4975731;28;19914;-89
2022/07/23 08:46:19;;;;;;;4.18;2.70;;;;;;;21.44;55.99;101915.09;4974905;28;20387;-89
2022/07/23 08:49:03;;;;;;;2.85;2.40;;;;;;;21.54;56.74;101928.78;4975032;28;20050;-92
2022/07/23 08:51:28;;;;;;;1.80;1.70;;;;;;;21.65;58.20;101930.94;4975591;28;20475;-92
2022/07/23 08:54:04;;;;;;;1.57;1.47;;;;;;;21.79;58.18;101924.19;4982224;23;20045;-92
2022/07/23 08:56:29;;;;;;;3.28;2.67;;;;;;;21.58;54.10;101927.69;4975353;28;20435;-92
2022/07/23 08:59:02;;;;;;;3.00;2.33;;;;;;;21.54;57.02;101925.25;4975479;28;20022;-93
2022/07/23 09:01:46;;;;;;;4.63;2.95;;;;;;;21.58;56.13;101925.03;4986616;28;20054;-92
2022/07/23 09:04:12;;;;;;;3.58;2.20;;;;;;;21.69;57.20;101926.38;4994767;28;20037;-93
2022/07/23 09:06:38;;;;;;;2.17;1.97;;;;;;;21.90;56.82;101921.91;4994985;28;20034;-92
2022/07/23 09:09:17;;;;;;;1.60;1.50;;;;;;;22.15;57.81;101920.78;4994607;28;20030;-84
2022/07/23 09:11:46;;;;;;;1.35;1.13;;;;;;;22.39;57.87;101916.09;4993492;28;20077;-84
2022/07/23 09:14:12;;;;;;;1.20;1.20;;;;;;;22.58;56.75;101920.50;5022738;23;20046;-90
2022/07/23 09:16:37;;;;;;;1.17;1.17;;;;;;;22.75;56.82;101920.53;5013631;28;20033;-96
2022/07/23 09:19:05;;;;;;;2.83;2.20;;;;;;;22.80;54.19;101915.84;5013320;28;20022;-88
2022/07/23 09:21:38;;;;;;;2.72;2.00;;;;;;;22.71;53.49;101920.78;5014022;28;20026;-87
2022/07/23 09:24:08;;;;;;;1.55;1.38;;;;;;;22.68;55.32;101898.81;5013121;28;20033;-87
2022/07/23 09:26:35;;;;;;;2.55;2.08;;;;;;;22.67;54.43;101894.47;5012440;28;20026;-88
2022/07/23 09:29:03;;;;;;;3.65;2.70;;;;;;;22.52;53.65;101903.16;5011718;28;20033;-87
2022/07/23 09:31:38;;;;;;;2.90;2.00;;;;;;;22.53;54.52;101904.84;5000601;28;20080;-88
2022/07/23 09:34:09;;;;;;;2.08;1.90;;;;;;;22.59;52.08;101896.63;4993890;28;20096;-88
2022/07/23 09:36:34;;;;;;;1.75;1.65;;;;;;;22.70;52.67;101901.38;4993110;28;20087;-85
2022/07/23 09:39:00;;;;;;;2.63;2.10;;;;;;;22.76;54.36;101905.50;4993446;28;20027;-87
2022/07/23 09:41:35;;;;;;;1.60;1.50;;;;;;;22.87;54.24;101911.13;4993338;28;20501;-87
2022/07/23 09:44:16;;;;;;;2.25;1.90;;;;;;;23.03;52.67;101916.47;4992278;28;20121;-87
2022/07/23 09:46:44;;;;;;;2.92;2.08;;;;;;;23.06;52.78;101913.69;4993902;28;20027;-93
2022/07/23 09:49:15;;;;;;;3.42;2.60;;;;;;;23.15;50.23;101925.59;4992808;28;20640;-84
2022/07/23 09:51:47;;;;;;;1.83;1.73;;;;;;;23.20;51.62;101922.75;4992402;28;20029;-84
2022/07/23 09:54:29;;;;;;;1.88;1.70;;;;;;;23.41;53.82;101916.34;4994142;28;20026;-92
2022/07/23 09:56:56;;;;;;;1.70;1.60;;;;;;;23.63;52.03;101919.63;4994573;28;20023;-89
2022/07/23 09:59:27;;;;;;;1.10;1.10;;;;;;;23.69;53.41;101919.28;4993724;28;20023;-94
2022/07/23 10:01:59;;;;;;;2.03;1.60;;;;;;;23.76;51.01;101923.31;4994282;28;20038;-91
2022/07/23 10:04:25;;;;;;;2.22;1.80;;;;;;;23.74;50.19;101917.28;4993995;28;20037;-89
2022/07/23 10:06:55;;;;;;;1.88;1.65;;;;;;;23.78;52.45;101915.31;4993968;28;20034;-91
2022/07/23 10:09:32;;;;;;;1.75;1.65;;;;;;;23.87;51.45;101917.44;4994461;28;20042;-93
2022/07/23 10:14:45;;;;;;;2.00;1.45;;;;;;;24.04;51.88;101919.19;4997676;28;20463;-92
2022/07/23 10:17:11;;;;;;;1.40;1.30;;;;;;;24.21;51.41;101921.75;4998069;28;20030;-90
2022/07/23 10:19:37;;;;;;;4.03;2.40;;;;;;;24.08;48.31;101918.09;4997330;28;20356;-90
2022/07/23 10:22:18;;;;;;;3.10;2.20;;;;;;;23.74;50.98;101914.63;4999550;28;20469;-92
2022/07/23 10:25:10;;;;;;;3.10;2.00;;;;;;;23.71;50.89;101920.06;4997343;28;20569;-92
2022/07/23 10:28:10;;;;;;;4.40;2.70;;;;;;;23.80;49.22;101918.72;4997595;28;20081;-90
2022/07/23 10:30:49;;;;;;;2.75;2.25;;;;;;;23.77;50.07;101916.25;4997925;28;20058;-90
2022/07/23 10:33:27;;;;;;;1.77;1.67;;;;;;;23.96;51.24;101916.97;4996033;28;20069;-87
2022/07/23 10:36:01;;;;;;;1.27;1.23;;;;;;;24.26;51.20;101918.88;4986910;23;20145;-89
2022/07/23 10:38:35;;;;;;;1.48;1.30;;;;;;;24.53;51.71;101915.56;4977669;28;20055;-89
2022/07/23 10:41:03;;;;;;;1.40;1.30;;;;;;;24.69;49.30;101918.22;4975837;28;20035;-85
2022/07/23 10:43:30;;;;;;;1.13;1.13;;;;;;;24.83;50.44;101923.56;4976827;28;20543;-95
2022/07/23 10:45:55;;;;;;;;;;;;;;;25.04;46.89;101917.94;4978103;28;20023;-91
2022/07/23 10:48:23;;;;;;;1.75;1.50;;;;;;;25.12;48.39;101918.31;4977410;28;20367;-83
2022/07/23 10:51:10;;;;;;;1.10;1.10;;;;;;;25.28;50.46;101912.94;4983091;28;20033;-82
2022/07/23 10:54:20;;;;;;;1.10;1.10;;;;;;;25.48;50.00;101910.91;4976442;28;20058;-83
2022/07/23 10:56:54;;;;;;;0.70;0.70;;;;;;;25.65;49.88;101914.31;4920950;29;20062;-86
2022/07/23 10:59:19;;;;;;;0.50;0.50;;;;;;;25.78;48.91;101909.94;4957093;29;20027;-85
2022/07/23 11:01:45;;;;;;;0.80;0.80;;;;;;;25.86;48.42;101918.25;4956838;29;20023;-86
2022/07/23 11:04:11;;;;;;;0.50;0.50;;;;;;;25.93;49.70;101921.38;4963751;28;20037;-88
2022/07/23 11:06:48;;;;;;;0.80;0.80;;;;;;;26.06;49.94;101922.31;4983590;28;20031;-87
2022/07/23 11:09:27;;;;;;;0.80;0.80;;;;;;;26.26;47.46;101916.69;4987118;28;20376;-88
2022/07/23 11:12:24;;;;;;;0.80;0.80;;;;;;;26.41;48.79;101923.66;4976229;28;20019;-88
2022/07/23 11:15:08;;;;;;;0.40;0.40;;;;;;;26.57;46.61;101912.00;4977604;28;20034;-93
2022/07/23 11:17:42;;;;;;;2.08;1.38;;;;;;;26.49;45.63;101910.72;4978067;28;20383;-88
2022/07/23 11:20:15;;;;;;;1.50;1.40;;;;;;;26.35;46.22;101908.09;4976775;28;20407;-93
2022/07/23 11:22:43;;;;;;;1.45;1.00;;;;;;;26.39;47.75;101906.97;4976053;28;20030;-90
2022/07/23 11:25:13;;;;;;;1.00;0.95;;;;;;;26.56;48.09;101904.97;4974872;28;20057;-86
2022/07/23 11:27:39;;;;;;;1.15;1.13;;;;;;;26.71;47.44;101905.75;4975875;28;20055;-86
2022/07/23 11:30:06;;;;;;;0.82;0.80;;;;;;;26.74;40.75;101903.72;4974943;28;20041;-87
2022/07/23 11:32:35;;;;;;;1.23;1.13;;;;;;;26.71;45.39;101903.94;4975739;28;20114;-86
2022/07/23 11:35:01;;;;;;;1.58;1.48;;;;;;;26.73;41.65;101898.50;4975272;28;20050;-86
2022/07/23 11:37:36;;;;;;;1.50;1.40;;;;;;;26.58;37.75;101903.06;4975134;28;20037;-85